Terminal Aerodrome Forecast
Issued by NWS Wilmington, OH

Current Version | Previous Version | Graphics & Text | Print | Product List | Glossary On
Versions: 1 2 3 4 5 6 7 8 9 10 11 12 13 14
000
FTUS41 KILN 161742 AAA
TAFCMH
TAF AMD
KCMH 161742Z 1618/1718 29009KT P6SM SCT035
     FM162100 26007KT P6SM BKN140
     FM162300 15003KT P6SM BKN080
     FM171200 17004KT P6SM SCT150
     FM171500 21009KT P6SM FEW150=

USA.gov is the U.S. government's official web portal to all federal, state and local government web resources and services.